Time;durP1;ratioP1;P1;durP2;ratioP2;P2;SDS_P1;SDS_P2;PMS_P1;PMS_P2;Temp;Humidity;BMP_temperature;BMP_pressure;BME280_temperature;BME280_humidity;BME280_pressure;Samples;Min_cycle;Max_cycle;Signal;HPM_P1;HPM_P2
2023/09/30 00:01:38;;;;;;;19.38;4.38;;;15.20;99.90;;;;;;5078353;27;20043;-75
2023/09/30 00:04:27;;;;;;;14.32;4.13;;;15.10;99.90;;;;;;5100519;28;20044;-75
2023/09/30 00:07:13;;;;;;;17.10;4.05;;;15.10;99.90;;;;;;5101786;27;20054;-75
2023/09/30 00:09:59;;;;;;;23.42;4.72;;;15.00;99.90;;;;;;5086880;28;20043;-76
2023/09/30 00:12:45;;;;;;;12.15;3.90;;;15.10;99.90;;;;;;5077809;28;20036;-76
2023/09/30 00:15:31;;;;;;;17.35;4.25;;;15.10;99.90;;;;;;5085718;27;20039;-75
2023/09/30 00:18:17;;;;;;;14.40;4.45;;;15.10;99.90;;;;;;5069303;28;20035;-75
2023/09/30 00:21:03;;;;;;;20.52;5.40;;;14.90;99.90;;;;;;5088249;27;20320;-75
2023/09/30 00:23:49;;;;;;;17.80;4.30;;;14.90;99.90;;;;;;5071006;28;20036;-75
2023/09/30 00:26:35;;;;;;;13.82;4.13;;;14.80;99.90;;;;;;5109688;27;20055;-75
2023/09/30 00:29:24;;;;;;;17.55;4.72;;;14.90;99.90;;;;;;5082906;27;20084;-75
2023/09/30 00:32:09;;;;;;;;;;;14.90;99.90;;;;;;5093980;28;20050;-76
2023/09/30 00:34:55;;;;;;;15.68;5.43;;;14.80;99.90;;;;;;5085179;27;19983;-75
2023/09/30 00:37:41;;;;;;;15.07;4.50;;;14.80;99.90;;;;;;5078674;28;20476;-75
2023/09/30 00:40:27;;;;;;;17.65;4.47;;;14.80;99.90;;;;;;5071376;27;20441;-75
2023/09/30 00:43:20;;;;;;;15.65;4.25;;;14.80;99.90;;;;;;5100829;27;20039;-75
2023/09/30 00:46:26;;;;;;;18.38;4.32;;;14.80;99.90;;;;;;5079853;28;20046;-76
2023/09/30 00:49:13;;;;;;;16.58;4.40;;;14.90;99.90;;;;;;5073083;28;20648;-75
2023/09/30 00:51:59;;;;;;;16.27;4.63;;;14.70;99.90;;;;;;5094671;28;20047;-75
2023/09/30 00:54:46;;;;;;;12.73;4.15;;;14.70;99.90;;;;;;5074594;27;20424;-76
2023/09/30 00:57:32;;;;;;;15.45;4.47;;;14.70;99.90;;;;;;5084926;28;20035;-76
2023/09/30 01:00:19;;;;;;;14.30;4.40;;;14.80;99.90;;;;;;5085557;27;20063;-77
2023/09/30 01:03:05;;;;;;;13.93;4.22;;;14.80;99.90;;;;;;5085462;28;20062;-75
2023/09/30 01:05:51;;;;;;;12.95;3.80;;;14.80;99.90;;;;;;5064740;28;20400;-76
2023/09/30 01:08:37;;;;;;;16.20;3.92;;;14.80;99.90;;;;;;5076948;27;20054;-76
2023/09/30 01:11:23;;;;;;;16.20;4.43;;;14.80;99.90;;;;;;5070754;28;20510;-76
2023/09/30 01:14:28;;;;;;;15.65;4.50;;;14.70;99.90;;;;;;5086898;27;20074;-76
2023/09/30 01:17:14;;;;;;;17.33;4.53;;;14.60;99.90;;;;;;5097070;28;20410;-77
2023/09/30 01:20:03;;;;;;;15.25;4.38;;;14.60;99.90;;;;;;5101887;27;20054;-77
2023/09/30 01:22:49;;;;;;;;;;;14.50;99.90;;;;;;5084343;28;20475;-77
2023/09/30 01:25:35;;;;;;;18.23;4.32;;;14.50;99.90;;;;;;5097404;27;19923;-77
2023/09/30 01:28:21;;;;;;;14.45;4.60;;;14.50;99.90;;;;;;5072804;28;20070;-76
2023/09/30 01:31:07;;;;;;;16.50;4.82;;;14.60;99.90;;;;;;5098202;28;20047;-77
2023/09/30 01:33:54;;;;;;;23.13;5.50;;;14.50;99.90;;;;;;5068136;28;20051;-77
2023/09/30 01:36:40;;;;;;;13.53;4.27;;;14.50;99.90;;;;;;5065571;28;20051;-77
2023/09/30 01:39:26;;;;;;;16.95;4.05;;;14.50;99.90;;;;;;5077197;27;20043;-77
2023/09/30 01:42:12;;;;;;;13.88;4.10;;;14.40;99.90;;;;;;5091852;28;20040;-77
2023/09/30 01:44:58;;;;;;;13.23;3.80;;;14.50;99.90;;;;;;5077230;28;20074;-77
2023/09/30 01:47:44;;;;;;;18.10;4.53;;;14.50;99.90;;;;;;5082934;27;20140;-77
2023/09/30 01:50:31;;;;;;;16.33;4.40;;;14.50;99.90;;;;;;5102347;27;20043;-77
2023/09/30 01:53:17;;;;;;;18.92;4.57;;;14.50;99.90;;;;;;5097903;28;20112;-77
2023/09/30 01:56:03;;;;;;;17.70;4.53;;;14.40;99.90;;;;;;5078202;28;20088;-77
2023/09/30 01:58:50;;;;;;;17.42;4.10;;;14.30;99.90;;;;;;5070469;28;20103;-77
2023/09/30 02:01:36;;;;;;;13.10;4.07;;;14.40;99.90;;;;;;5076249;27;20046;-77
2023/09/30 02:04:23;;;;;;;18.17;4.60;;;14.20;99.90;;;;;;5082525;28;20040;-77
2023/09/30 02:07:09;;;;;;;18.08;4.75;;;14.30;99.90;;;;;;5085766;27;20046;-77
2023/09/30 02:09:55;;;;;;;16.85;4.30;;;14.30;99.90;;;;;;5065193;28;20106;-77
2023/09/30 02:12:41;;;;;;;19.35;4.32;;;14.30;99.90;;;;;;5059469;28;20067;-78
2023/09/30 02:15:27;;;;;;;17.00;4.40;;;14.20;99.90;;;;;;5062858;27;20361;-77
2023/09/30 02:18:14;;;;;;;16.73;4.32;;;14.10;99.90;;;;;;5067232;28;20043;-76
2023/09/30 02:21:00;;;;;;;16.05;4.47;;;14.20;99.90;;;;;;5084805;28;20047;-77
2023/09/30 02:23:47;;;;;;;16.33;3.75;;;14.20;99.90;;;;;;5084171;28;20035;-77
2023/09/30 02:26:33;;;;;;;19.10;3.78;;;14.30;99.90;;;;;;5068398;27;20063;-77
2023/09/30 02:29:19;;;;;;;21.08;5.75;;;14.30;99.90;;;;;;5089999;28;20039;-77
2023/09/30 02:32:05;;;;;;;16.02;4.00;;;14.20;99.90;;;;;;5067056;28;20476;-77
2023/09/30 02:34:51;;;;;;;15.25;4.30;;;14.20;99.90;;;;;;5082846;28;20125;-77
2023/09/30 02:37:37;;;;;;;20.77;5.25;;;14.20;99.90;;;;;;5079124;28;20061;-77
2023/09/30 02:40:24;;;;;;;19.48;5.22;;;14.20;99.90;;;;;;5095326;28;20563;-77
2023/09/30 02:43:10;;;;;;;14.80;4.30;;;14.20;99.90;;;;;;5077567;28;20494;-78
2023/09/30 02:45:56;;;;;;;21.13;4.15;;;14.30;99.90;;;;;;5068864;28;20066;-78
2023/09/30 02:48:42;;;;;;;16.20;4.13;;;14.20;99.90;;;;;;5095330;28;20039;-77
2023/09/30 02:51:29;;;;;;;14.68;4.20;;;14.30;99.90;;;;;;5084669;28;20088;-76
2023/09/30 02:54:16;;;;;;;19.70;4.72;;;14.30;99.90;;;;;;5093256;28;20074;-77
2023/09/30 02:57:03;;;;;;;19.27;4.88;;;14.30;99.90;;;;;;5078509;28;20065;-77
2023/09/30 02:59:51;;;;;;;13.38;4.03;;;14.30;99.90;;;;;;5059239;28;20058;-77
2023/09/30 03:02:37;;;;;;;17.55;4.05;;;14.40;99.90;;;;;;5075857;28;20043;-77
2023/09/30 03:05:23;;;;;;;16.10;4.35;;;14.40;99.90;;;;;;5083669;28;20051;-77
2023/09/30 03:08:10;;;;;;;14.55;3.95;;;14.40;99.90;;;;;;5073776;28;20093;-76
2023/09/30 03:10:56;;;;;;;15.27;4.80;;;14.40;99.90;;;;;;5077795;28;20051;-76
2023/09/30 03:13:42;;;;;;;15.23;4.32;;;14.40;99.90;;;;;;5069861;28;20035;-75
2023/09/30 03:16:28;;;;;;;15.82;4.72;;;14.40;99.90;;;;;;5094126;28;20471;-77
2023/09/30 03:19:16;;;;;;;14.02;3.63;;;14.40;99.90;;;;;;5061942;28;20051;-75
2023/09/30 03:22:04;;;;;;;16.95;4.65;;;14.40;99.90;;;;;;5097574;28;20050;-76
2023/09/30 03:24:50;;;;;;;28.17;5.63;;;14.30;99.90;;;;;;5097444;28;20371;-76
2023/09/30 03:27:36;;;;;;;15.50;3.80;;;14.30;99.90;;;;;;5075985;28;20100;-77
2023/09/30 03:30:22;;;;;;;17.35;5.05;;;14.30;99.90;;;;;;5070097;28;20036;-77
2023/09/30 03:33:08;;;;;;;19.08;4.38;;;14.10;99.90;;;;;;5085455;28;20525;-77
2023/09/30 03:35:54;;;;;;;17.73;4.45;;;14.20;99.90;;;;;;5114510;28;20539;-77
2023/09/30 03:38:41;;;;;;;23.83;4.57;;;14.20;99.90;;;;;;5066941;28;20047;-78
2023/09/30 03:41:28;;;;;;;17.10;4.20;;;14.20;99.90;;;;;;5103433;27;20459;-77
2023/09/30 03:44:14;;;;;;;17.90;4.30;;;14.20;99.90;;;;;;5078608;28;20050;-75
2023/09/30 03:47:00;;;;;;;20.40;4.28;;;14.20;99.90;;;;;;5098619;28;20074;-77
2023/09/30 03:49:48;;;;;;;19.00;4.53;;;14.10;99.90;;;;;;5064670;27;20047;-77
2023/09/30 03:52:34;;;;;;;20.45;4.50;;;14.10;99.90;;;;;;5097579;27;20192;-75
2023/09/30 03:55:20;;;;;;;15.95;4.15;;;14.00;99.90;;;;;;5074701;27;20502;-76
2023/09/30 03:58:06;;;;;;;18.15;4.78;;;14.10;99.90;;;;;;5099304;28;20692;-76
2023/09/30 04:00:53;;;;;;;18.35;4.22;;;14.10;99.90;;;;;;5068942;28;20043;-77
2023/09/30 04:03:39;;;;;;;15.65;4.32;;;13.90;99.90;;;;;;5067060;27;20050;-77
2023/09/30 04:06:25;;;;;;;16.52;4.85;;;14.00;99.90;;;;;;5084097;28;20424;-77
2023/09/30 04:09:12;;;;;;;13.88;5.00;;;13.90;99.90;;;;;;5089092;27;20100;-76
2023/09/30 04:11:58;;;;;;;22.92;4.72;;;13.90;99.90;;;;;;5090634;28;20402;-77
2023/09/30 04:14:44;;;;;;;20.45;5.00;;;14.00;99.90;;;;;;5083669;28;20036;-76
2023/09/30 04:17:31;;;;;;;17.67;4.65;;;13.90;99.90;;;;;;5080571;27;20708;-77
2023/09/30 04:20:20;;;;;;;17.33;4.32;;;13.90;99.90;;;;;;5083912;28;20069;-77
2023/09/30 04:23:09;;;;;;;21.77;5.65;;;13.80;99.90;;;;;;5118004;27;20035;-76
2023/09/30 04:25:55;;;;;;;16.20;4.95;;;14.00;99.90;;;;;;5086040;27;20066;-77
2023/09/30 04:28:41;;;;;;;21.55;6.25;;;14.00;99.90;;;;;;5077613;28;20039;-76
2023/09/30 04:31:28;;;;;;;20.92;5.30;;;14.00;99.90;;;;;;5065337;28;20118;-75
2023/09/30 04:34:14;;;;;;;18.35;4.65;;;14.00;99.90;;;;;;5083891;28;20043;-76
2023/09/30 04:37:00;;;;;;;19.08;5.10;;;14.00;99.90;;;;;;5064208;27;20096;-75
2023/09/30 04:39:46;;;;;;;23.65;5.90;;;13.90;99.90;;;;;;5065949;28;20040;-77
2023/09/30 04:42:34;;;;;;;19.55;5.20;;;13.90;99.90;;;;;;5089338;27;20507;-76
2023/09/30 04:45:20;;;;;;;17.80;4.70;;;13.80;99.90;;;;;;5070978;28;20361;-76
2023/09/30 04:48:06;;;;;;;21.65;5.18;;;13.70;99.90;;;;;;5071662;28;20040;-77
2023/09/30 04:50:52;;;;;;;24.33;5.80;;;13.70;99.90;;;;;;5072921;27;20035;-77
2023/09/30 04:53:38;;;;;;;15.73;4.72;;;13.60;99.90;;;;;;5086550;28;20028;-78
2023/09/30 04:56:25;;;;;;;30.92;6.00;;;13.60;99.90;;;;;;5088060;27;20039;-75
2023/09/30 04:59:10;;;;;;;19.95;5.30;;;13.50;99.90;;;;;;5079588;28;20040;-75
2023/09/30 05:01:56;;;;;;;22.92;5.80;;;13.50;99.90;;;;;;5096741;27;20036;-75
2023/09/30 05:04:43;;;;;;;20.33;4.93;;;13.50;99.90;;;;;;5077144;27;20092;-75
2023/09/30 05:07:28;;;;;;;19.77;5.03;;;13.60;99.90;;;;;;5113385;27;20355;-75
2023/09/30 05:10:16;;;;;;;17.23;4.68;;;13.60;99.90;;;;;;5094065;27;20049;-76
2023/09/30 05:13:02;;;;;;;19.88;5.35;;;13.70;99.90;;;;;;5085286;28;20196;-75
2023/09/30 05:15:49;;;;;;;15.45;4.93;;;13.70;99.90;;;;;;5086149;27;20130;-75
2023/09/30 05:18:35;;;;;;;16.08;4.78;;;13.70;99.90;;;;;;5074695;28;20051;-75
2023/09/30 05:21:21;;;;;;;16.30;5.00;;;13.80;99.90;;;;;;5082894;28;20043;-75
2023/09/30 05:24:08;;;;;;;21.45;5.43;;;13.70;99.90;;;;;;5075604;27;20052;-75
2023/09/30 05:26:54;;;;;;;13.30;4.97;;;13.70;99.90;;;;;;5084318;28;20588;-75
2023/09/30 05:29:40;;;;;;;15.45;4.90;;;13.60;99.90;;;;;;5113315;27;20051;-75
2023/09/30 05:32:26;;;;;;;20.70;5.53;;;13.70;99.90;;;;;;5098814;28;20364;-75
2023/09/30 05:35:13;;;;;;;18.60;5.43;;;13.70;99.90;;;;;;5079728;28;20547;-76
2023/09/30 05:37:58;;;;;;;23.42;5.45;;;13.80;99.90;;;;;;5089712;27;20046;-76
2023/09/30 05:40:44;;;;;;;25.60;4.80;;;13.80;99.90;;;;;;5084065;28;20364;-76
2023/09/30 05:43:30;;;;;;;19.30;4.97;;;13.70;99.90;;;;;;5071893;27;20035;-76
2023/09/30 05:46:17;;;;;;;25.10;5.95;;;13.70;99.90;;;;;;5085152;28;20367;-76
2023/09/30 05:49:09;;;;;;;19.35;5.28;;;13.70;99.90;;;;;;5072362;28;20035;-76
2023/09/30 05:51:55;;;;;;;17.27;4.80;;;13.60;99.90;;;;;;5064655;27;20456;-76
2023/09/30 05:54:41;;;;;;;22.02;5.32;;;13.70;99.90;;;;;;5098846;28;20414;-76
2023/09/30 05:57:28;;;;;;;19.85;5.00;;;13.70;99.90;;;;;;5085012;27;20556;-76
2023/09/30 06:00:20;;;;;;;19.92;5.63;;;13.70;99.90;;;;;;5098408;28;20051;-76
2023/09/30 06:03:06;;;;;;;31.55;6.90;;;13.80;99.90;;;;;;5100112;28;20437;-76
2023/09/30 06:05:52;;;;;;;21.55;5.10;;;13.80;99.90;;;;;;5095548;28;20046;-76
2023/09/30 06:08:39;;;;;;;18.17;4.78;;;13.80;99.90;;;;;;5093643;28;20043;-76
2023/09/30 06:11:28;;;;;;;22.27;5.10;;;13.80;99.90;;;;;;5057478;28;20468;-76
2023/09/30 06:14:14;;;;;;;17.92;5.30;;;13.70;99.90;;;;;;5099641;28;20040;-76
2023/09/30 06:17:00;;;;;;;18.80;4.40;;;13.80;99.90;;;;;;5086505;27;20035;-76
2023/09/30 06:19:47;;;;;;;27.40;5.32;;;13.70;99.90;;;;;;5092488;28;20040;-76
2023/09/30 06:22:33;;;;;;;19.67;5.38;;;13.80;99.90;;;;;;5081121;27;20036;-76
2023/09/30 06:25:19;;;;;;;22.25;4.53;;;13.70;99.90;;;;;;5091549;27;20083;-76
2023/09/30 06:28:07;;;;;;;17.02;4.45;;;13.80;99.90;;;;;;5082548;28;20044;-76
2023/09/30 06:30:53;;;;;;;15.07;4.72;;;13.80;99.90;;;;;;5095875;27;20118;-76
2023/09/30 06:33:39;;;;;;;18.60;4.70;;;13.80;99.90;;;;;;5080392;28;20042;-76
2023/09/30 06:36:25;;;;;;;20.17;4.82;;;13.70;99.90;;;;;;5082503;27;20051;-76
2023/09/30 06:39:11;;;;;;;16.75;5.22;;;13.80;99.90;;;;;;5088670;28;20031;-76
2023/09/30 06:41:57;;;;;;;18.17;5.15;;;13.70;99.90;;;;;;5080739;28;20482;-76
2023/09/30 06:44:43;;;;;;;18.33;4.90;;;13.80;99.90;;;;;;5096830;27;20035;-75
2023/09/30 06:47:33;;;;;;;20.83;4.65;;;13.80;99.90;;;;;;5079560;28;20380;-75
2023/09/30 06:50:21;;;;;;;21.00;5.53;;;13.80;99.90;;;;;;5092147;27;20047;-75
2023/09/30 06:53:09;;;;;;;19.10;4.55;;;13.80;99.90;;;;;;5095852;28;20039;-75
2023/09/30 06:55:55;;;;;;;16.10;4.38;;;13.80;99.90;;;;;;5111135;27;20127;-76
2023/09/30 06:58:41;;;;;;;19.05;4.47;;;13.80;99.90;;;;;;5103243;28;20088;-75
2023/09/30 07:01:27;;;;;;;21.55;4.70;;;13.90;99.90;;;;;;5078131;28;20051;-75
2023/09/30 07:04:13;;;;;;;15.52;4.70;;;13.80;99.90;;;;;;5085465;28;20081;-75
2023/09/30 07:06:59;;;;;;;17.60;4.82;;;13.80;99.90;;;;;;5078114;28;20052;-76
2023/09/30 07:09:45;;;;;;;18.30;4.90;;;13.80;99.90;;;;;;5083297;28;20054;-75
2023/09/30 07:12:35;;;;;;;17.00;4.30;;;13.90;99.90;;;;;;5108193;27;20043;-75
2023/09/30 07:15:21;;;;;;;15.45;4.35;;;13.90;99.90;;;;;;5087255;28;20138;-75
2023/09/30 07:18:07;;;;;;;20.05;4.40;;;13.90;99.90;;;;;;5069471;27;20104;-75
2023/09/30 07:20:53;;;;;;;19.50;4.25;;;14.00;99.90;;;;;;5087075;28;20131;-75
2023/09/30 07:23:40;;;;;;;18.42;4.35;;;14.00;99.90;;;;;;5114504;27;20497;-75
2023/09/30 07:26:27;;;;;;;17.17;3.92;;;14.00;99.90;;;;;;5087049;28;20127;-76
2023/09/30 07:29:13;;;;;;;26.25;5.50;;;14.10;99.90;;;;;;5081203;28;20500;-75
2023/09/30 07:31:59;;;;;;;14.75;4.22;;;14.20;99.90;;;;;;5110404;27;20031;-75
2023/09/30 07:34:45;;;;;;;18.10;4.85;;;14.10;99.90;;;;;;5087156;28;20043;-75
2023/09/30 07:37:31;;;;;;;22.40;4.22;;;14.20;99.90;;;;;;5116342;27;20380;-75
2023/09/30 07:40:17;;;;;;;25.23;4.93;;;14.20;99.90;;;;;;5086033;28;20039;-76
2023/09/30 07:43:03;;;;;;;15.65;4.07;;;14.30;99.90;;;;;;5095894;28;20073;-75
2023/09/30 07:45:49;;;;;;;16.40;3.72;;;14.40;99.90;;;;;;5085312;27;20066;-76
2023/09/30 07:48:35;;;;;;;18.27;5.00;;;14.50;99.90;;;;;;5113010;27;20355;-75
2023/09/30 07:51:21;;;;;;;14.45;4.00;;;14.50;99.90;;;;;;5088164;27;20039;-75
2023/09/30 07:54:07;;;;;;;16.90;3.47;;;14.60;99.90;;;;;;5081392;28;20036;-76
2023/09/30 07:56:55;;;;;;;12.35;3.75;;;14.60;99.90;;;;;;5086347;28;20043;-75
2023/09/30 07:59:41;;;;;;;14.80;3.90;;;14.80;99.90;;;;;;5061492;28;20089;-75
2023/09/30 08:02:33;;;;;;;17.45;4.25;;;14.80;99.90;;;;;;5099409;28;20040;-76
2023/09/30 08:05:19;;;;;;;14.82;3.55;;;14.80;99.90;;;;;;5078075;27;20039;-75
2023/09/30 08:08:05;;;;;;;15.45;3.40;;;14.90;99.90;;;;;;5100560;28;20051;-76
2023/09/30 08:10:55;;;;;;;11.80;3.60;;;15.00;99.90;;;;;;5100471;27;20372;-75
2023/09/30 08:13:41;;;;;;;14.98;3.00;;;15.00;99.90;;;;;;5066100;28;20459;-75
2023/09/30 08:16:27;;;;;;;14.70;3.75;;;15.10;99.90;;;;;;5070205;28;20036;-75
2023/09/30 08:19:13;;;;;;;12.18;2.95;;;15.10;99.90;;;;;;5110243;27;20051;-76
2023/09/30 08:21:59;;;;;;;14.63;4.10;;;15.10;99.90;;;;;;5085492;28;20499;-75
2023/09/30 08:24:45;;;;;;;13.80;3.35;;;15.20;99.90;;;;;;5087034;27;20051;-76
2023/09/30 08:27:31;;;;;;;13.90;4.30;;;15.20;99.90;;;;;;5065862;28;20052;-75
2023/09/30 08:30:18;;;;;;;13.20;2.97;;;15.20;99.90;;;;;;5082104;28;20119;-75
2023/09/30 08:33:05;;;;;;;13.15;3.58;;;15.30;99.90;;;;;;5064549;27;20046;-75
2023/09/30 08:35:51;;;;;;;14.43;4.10;;;15.40;99.90;;;;;;5085681;28;20410;-75
2023/09/30 08:38:37;;;;;;;12.40;3.65;;;15.40;99.90;;;;;;5082640;27;20095;-75
2023/09/30 08:41:34;;;;;;;11.93;3.17;;;15.50;99.90;;;;;;5081779;28;20036;-75
2023/09/30 08:44:20;;;;;;;14.68;3.33;;;15.50;99.90;;;;;;5099053;27;20156;-75
2023/09/30 08:47:08;;;;;;;12.18;3.45;;;15.60;99.90;;;;;;5060196;28;20044;-75
2023/09/30 08:49:56;;;;;;;16.67;3.28;;;15.70;99.90;;;;;;5110027;27;20054;-75
2023/09/30 08:52:44;;;;;;;15.95;3.72;;;15.70;99.90;;;;;;5077945;27;20479;-75
2023/09/30 08:55:30;;;;;;;13.48;3.60;;;15.80;99.90;;;;;;5077037;28;20036;-76
2023/09/30 08:58:16;;;;;;;16.08;3.75;;;15.90;99.90;;;;;;5074439;27;20066;-76
2023/09/30 09:01:02;;;;;;;12.43;3.78;;;15.90;99.90;;;;;;5085399;28;20145;-75
2023/09/30 09:03:52;;;;;;;9.57;3.35;;;15.90;99.90;;;;;;5095712;27;20488;-74
2023/09/30 09:06:38;;;;;;;13.52;3.13;;;16.00;99.90;;;;;;5092393;27;20048;-75
2023/09/30 09:09:24;;;;;;;16.73;4.25;;;16.00;99.90;;;;;;5092957;28;20491;-75
2023/09/30 09:12:20;;;;;;;14.75;3.28;;;16.10;99.90;;;;;;5083606;27;20046;-76
2023/09/30 09:15:19;;;;;;;17.88;4.00;;;16.10;99.90;;;;;;5085307;28;20418;-75
2023/09/30 09:18:05;;;;;;;12.52;3.38;;;16.30;99.90;;;;;;5072070;27;20039;-75
2023/09/30 09:20:52;;;;;;;19.33;3.50;;;16.30;99.90;;;;;;5077420;28;20047;-75
2023/09/30 09:23:45;;;;;;;12.45;2.92;;;16.40;99.90;;;;;;5069517;27;20035;-75
2023/09/30 09:26:38;;;;;;;17.75;4.00;;;16.50;99.90;;;;;;5088676;28;20104;-75
2023/09/30 09:29:26;;;;;;;15.30;3.13;;;16.60;99.90;;;;;;5083562;28;20075;-76
2023/09/30 09:32:16;;;;;;;13.20;3.05;;;16.70;99.90;;;;;;5085239;28;20039;-75
2023/09/30 09:35:03;;;;;;;11.70;3.17;;;16.90;99.90;;;;;;5070943;28;20106;-76
2023/09/30 09:38:00;;;;;;;10.83;2.80;;;17.00;99.90;;;;;;5098630;27;20032;-75
2023/09/30 09:40:46;;;;;;;9.45;3.03;;;17.10;99.90;;;;;;5095976;28;20047;-77
2023/09/30 09:43:32;;;;;;;14.73;3.30;;;17.10;99.90;;;;;;5086068;27;20475;-77
2023/09/30 09:46:18;;;;;;;14.50;3.63;;;17.20;99.90;;;;;;5079993;28;20042;-76
2023/09/30 09:49:04;;;;;;;12.32;2.78;;;17.30;99.90;;;;;;5081111;28;20074;-77
2023/09/30 09:51:50;;;;;;;11.98;3.00;;;17.30;99.90;;;;;;5077210;27;20071;-76
2023/09/30 09:54:36;;;;;;;11.25;2.83;;;17.40;99.90;;;;;;5082953;28;20126;-76
2023/09/30 09:57:22;;;;;;;17.33;2.80;;;17.40;99.90;;;;;;5068729;27;20071;-76
2023/09/30 10:00:13;;;;;;;12.27;3.38;;;17.50;99.90;;;;;;5067495;28;20127;-75
2023/09/30 10:02:59;;;;;;;9.73;2.42;;;17.60;99.90;;;;;;5097647;27;20055;-76
2023/09/30 10:05:45;;;;;;;13.38;2.88;;;17.70;99.90;;;;;;5092873;28;20043;-76
2023/09/30 10:08:52;;;;;;;9.10;2.50;;;17.70;99.90;;;;;;5072163;28;20079;-75
2023/09/30 10:11:41;;;;;;;12.52;3.00;;;17.60;99.90;;;;;;5078377;28;20055;-75
2023/09/30 10:14:35;;;;;;;11.35;2.85;;;17.60;99.90;;;;;;5092945;28;20038;-75
2023/09/30 10:17:44;;;;;;;12.95;2.72;;;17.60;99.90;;;;;;5083593;27;20035;-76
2023/09/30 10:20:31;;;;;;;14.00;3.22;;;17.80;99.90;;;;;;5100660;28;20406;-75
2023/09/30 10:23:17;;;;;;;14.43;2.88;;;17.80;99.90;;;;;;5067219;28;20092;-76
2023/09/30 10:26:13;;;;;;;12.80;3.00;;;17.80;99.90;;;;;;5108761;28;20489;-75
2023/09/30 10:29:00;;;;;;;8.55;2.35;;;17.90;99.90;;;;;;5087401;27;20051;-75
2023/09/30 10:31:50;;;;;;;11.65;2.58;;;18.00;99.90;;;;;;5062575;28;20139;-75
2023/09/30 10:34:36;;;;;;;11.45;2.80;;;18.20;99.90;;;;;;5096570;27;20114;-75
2023/09/30 10:37:23;;;;;;;9.43;2.45;;;18.20;99.90;;;;;;5072330;28;20032;-75
2023/09/30 10:40:09;;;;;;;10.57;2.63;;;18.10;99.90;;;;;;5069223;28;20103;-76
2023/09/30 10:42:56;;;;;;;11.23;2.70;;;18.30;99.90;;;;;;5069465;28;20398;-76
2023/09/30 10:45:44;;;;;;;14.17;3.17;;;18.20;99.90;;;;;;5083626;28;20150;-75
2023/09/30 10:48:36;;;;;;;11.05;3.22;;;18.50;99.90;;;;;;5082978;28;20074;-75
2023/09/30 10:51:22;;;;;;;11.65;3.08;;;18.90;99.90;;;;;;5108189;28;20027;-76
2023/09/30 10:54:08;;;;;;;10.70;3.00;;;18.90;99.90;;;;;;5081175;28;20050;-75
2023/09/30 10:56:54;;;;;;;9.32;2.45;;;18.70;99.90;;;;;;5097183;28;20039;-76
2023/09/30 10:59:40;;;;;;;10.32;2.72;;;19.00;99.90;;;;;;5092505;28;20069;-76
2023/09/30 11:02:26;;;;;;;11.38;2.83;;;18.70;99.90;;;;;;5062145;28;20039;-76
2023/09/30 11:05:13;;;;;;;9.05;3.05;;;18.40;99.90;;;;;;5085969;28;20047;-77
2023/09/30 11:08:00;;;;;;;6.50;2.07;;;18.60;99.90;;;;;;5071502;28;20051;-76
2023/09/30 11:10:50;;;;;;;5.53;2.13;;;19.00;99.90;;;;;;5083097;28;20063;-76
2023/09/30 11:13:36;;;;;;;9.82;2.60;;;19.00;99.90;;;;;;5065750;28;20511;-77
2023/09/30 11:16:22;;;;;;;9.48;2.50;;;18.90;99.10;;;;;;5076479;28;20035;-77
2023/09/30 11:19:09;;;;;;;8.20;2.40;;;18.70;99.40;;;;;;5086650;28;20376;-76
2023/09/30 11:21:55;;;;;;;9.68;2.28;;;18.70;99.70;;;;;;5084595;28;20142;-76
2023/09/30 11:24:41;;;;;;;11.23;2.38;;;18.90;99.70;;;;;;5080427;28;20043;-75
2023/09/30 11:27:27;;;;;;;15.77;2.40;;;18.70;99.60;;;;;;5058201;28;20063;-75
2023/09/30 11:30:14;;;;;;;10.20;2.13;;;18.70;99.90;;;;;;5040773;28;20127;-75
2023/09/30 11:33:00;;;;;;;8.65;2.10;;;18.60;99.70;;;;;;5060949;28;20039;-75
2023/09/30 11:36:05;;;;;;;8.75;2.10;;;18.50;99.90;;;;;;5059913;28;20044;-75
2023/09/30 11:38:54;;;;;;;10.63;2.63;;;18.30;99.90;;;;;;5046030;28;20051;-75
2023/09/30 11:41:43;;;;;;;11.02;2.60;;;18.30;99.90;;;;;;5035784;28;20484;-75
2023/09/30 11:44:30;;;;;;;9.07;2.33;;;18.30;99.90;;;;;;5050123;28;20087;-75
2023/09/30 11:47:17;;;;;;;8.43;2.50;;;18.30;99.90;;;;;;5080601;28;20097;-76
2023/09/30 11:50:04;;;;;;;13.85;2.65;;;18.30;99.90;;;;;;5056969;28;20056;-75
2023/09/30 11:52:50;;;;;;;8.85;2.47;;;18.20;99.90;;;;;;5058909;28;20135;-76
2023/09/30 11:55:37;;;;;;;11.10;2.60;;;18.10;99.90;;;;;;5066867;28;20051;-75
2023/09/30 11:58:23;;;;;;;8.10;2.53;;;18.20;99.90;;;;;;5076829;28;20129;-75
2023/09/30 12:01:13;;;;;;;6.75;2.05;;;18.20;99.90;;;;;;5064930;28;20460;-76
2023/09/30 12:03:59;;;;;;;9.45;2.22;;;18.30;99.90;;;;;;5066044;28;20032;-75
2023/09/30 12:06:47;;;;;;;8.40;2.65;;;18.60;99.90;;;;;;5059157;28;20045;-75
2023/09/30 12:09:36;;;;;;;9.98;2.08;;;18.80;99.60;;;;;;5045229;28;20537;-76
2023/09/30 12:12:23;;;;;;;7.38;1.75;;;19.10;99.20;;;;;;5061718;28;20492;-77
2023/09/30 12:15:10;;;;;;;7.72;2.30;;;19.30;98.70;;;;;;5071058;28;20075;-77
2023/09/30 12:17:56;;;;;;;10.77;2.38;;;19.40;98.20;;;;;;5082605;28;20364;-77
2023/09/30 12:20:43;;;;;;;7.40;2.38;;;19.50;97.10;;;;;;5069278;28;20050;-77
2023/09/30 12:23:28;;;;;;;11.35;2.65;;;19.60;97.30;;;;;;5072996;28;20086;-77
2023/09/30 12:26:17;;;;;;;5.38;1.70;;;19.70;96.40;;;;;;5075675;28;20051;-77
2023/09/30 12:29:04;;;;;;;5.45;2.13;;;19.90;94.50;;;;;;5087466;28;20123;-77
2023/09/30 12:31:51;;;;;;;7.43;2.15;;;20.00;94.30;;;;;;5089365;28;20036;-78
2023/09/30 12:34:37;;;;;;;6.65;1.67;;;20.10;93.20;;;;;;5076599;28;20403;-76
2023/09/30 12:37:23;;;;;;;7.72;2.03;;;20.30;93.00;;;;;;5077140;28;20040;-78
2023/09/30 12:40:11;;;;;;;8.75;1.88;;;20.40;92.90;;;;;;5087209;28;20733;-77
2023/09/30 12:42:57;;;;;;;;;;;20.30;93.40;;;;;;5077609;28;20085;-77
2023/09/30 12:45:44;;;;;;;6.90;2.07;;;20.30;93.00;;;;;;5101209;28;20320;-77
2023/09/30 12:48:30;;;;;;;6.93;1.88;;;20.40;93.20;;;;;;5083177;28;20162;-78
2023/09/30 12:51:16;;;;;;;5.90;2.03;;;20.50;92.80;;;;;;5089422;28;20040;-78
2023/09/30 12:54:02;;;;;;;13.18;1.85;;;20.60;91.70;;;;;;5103583;28;20036;-77
2023/09/30 12:56:50;;;;;;;5.57;1.30;;;20.70;91.70;;;;;;5085749;28;20047;-77
2023/09/30 12:59:36;;;;;;;8.25;1.73;;;20.60;91.80;;;;;;5089092;28;20051;-77
2023/09/30 13:02:22;;;;;;;8.18;2.22;;;20.60;91.40;;;;;;5072984;28;20036;-78
2023/09/30 13:05:08;;;;;;;6.97;1.90;;;20.80;91.50;;;;;;5082290;28;20166;-79
2023/09/30 13:07:55;;;;;;;5.90;1.40;;;20.80;90.70;;;;;;5071771;28;20075;-77
2023/09/30 13:10:41;;;;;;;5.72;2.25;;;20.70;90.10;;;;;;5085579;28;20122;-78
2023/09/30 13:13:28;;;;;;;7.38;1.90;;;20.80;90.10;;;;;;5085335;28;20067;-78
2023/09/30 13:16:14;;;;;;;9.03;2.00;;;21.10;90.10;;;;;;5078874;28;20050;-78
2023/09/30 13:19:01;;;;;;;9.63;2.17;;;21.00;90.00;;;;;;5082387;28;20047;-77
2023/09/30 13:21:49;;;;;;;8.97;1.80;;;20.80;90.40;;;;;;5084110;28;20046;-79
2023/09/30 13:24:39;;;;;;;6.68;1.55;;;21.30;90.50;;;;;;5076782;28;20071;-77
2023/09/30 13:27:25;;;;;;;8.18;1.67;;;21.50;89.10;;;;;;5096125;28;20143;-77
2023/09/30 13:30:11;;;;;;;10.00;2.00;;;21.70;86.80;;;;;;5093121;28;20040;-78
2023/09/30 13:32:57;;;;;;;4.50;1.38;;;21.70;88.20;;;;;;5075232;28;20071;-77
2023/09/30 13:35:45;;;;;;;6.35;1.50;;;21.60;86.40;;;;;;5090105;28;20047;-77
2023/09/30 13:38:31;;;;;;;;;;;21.90;87.70;;;;;;5085520;28;20346;-78
2023/09/30 13:41:17;;;;;;;4.25;1.52;;;21.70;88.00;;;;;;5068679;28;19933;-77
2023/09/30 13:44:03;;;;;;;4.13;1.55;;;21.50;87.70;;;;;;5083927;28;20467;-77
2023/09/30 13:46:49;;;;;;;7.47;2.10;;;21.20;89.40;;;;;;5078153;28;20468;-77
2023/09/30 13:49:35;;;;;;;7.28;2.00;;;21.00;89.70;;;;;;5080715;28;20040;-79
2023/09/30 13:52:21;;;;;;;6.85;1.58;;;20.60;89.50;;;;;;5086620;28;20051;-77
2023/09/30 13:55:08;;;;;;;5.85;1.83;;;20.40;90.10;;;;;;5074976;28;20091;-77
2023/09/30 13:57:54;;;;;;;6.60;2.15;;;20.20;90.30;;;;;;5083347;28;20040;-77
2023/09/30 14:00:41;;;;;;;7.72;1.73;;;20.00;90.20;;;;;;5093968;28;20138;-78
2023/09/30 14:03:28;;;;;;;8.70;2.33;;;19.80;90.00;;;;;;5083464;28;20040;-77
2023/09/30 14:06:14;;;;;;;4.73;1.70;;;20.00;90.10;;;;;;5087352;28;20039;-77
2023/09/30 14:09:00;;;;;;;7.93;2.65;;;19.80;90.50;;;;;;5065458;28;20075;-78
2023/09/30 14:11:47;;;;;;;6.00;1.85;;;19.60;90.60;;;;;;5082986;28;20039;-76
2023/09/30 14:14:36;;;;;;;6.85;2.13;;;19.40;90.60;;;;;;5092797;28;20468;-77
2023/09/30 14:17:22;;;;;;;9.02;2.13;;;19.50;91.00;;;;;;5074025;28;20040;-77
2023/09/30 14:20:09;;;;;;;4.97;1.80;;;19.50;90.70;;;;;;5095767;28;20458;-78
2023/09/30 14:22:55;;;;;;;7.43;1.90;;;19.60;91.00;;;;;;5078746;28;20051;-78